TimeEDT,TemperatureF,Dew PointF,Humidity,Sea Level PressureIn,VisibilityMPH,Wind Direction,Wind SpeedMPH,Gust SpeedMPH,PrecipitationIn,Events,Conditions,WindDirDegrees,DateUTC
12:53 AM,57.9,53.1,84,29.98,10.0,SSW,5.8,-,N/A,,Mostly Cloudy,210,2013-05-09 04:53:00
1:53 AM,57.0,53.1,87,29.96,9.0,Calm,Calm,-,N/A,,Scattered Clouds,0,2013-05-09 05:53:00
2:53 AM,57.9,53.1,84,29.94,10.0,Calm,Calm,-,N/A,,Scattered Clouds,0,2013-05-09 06:53:00
3:53 AM,57.0,52.0,83,29.93,7.0,Calm,Calm,-,N/A,,Mostly Cloudy,0,2013-05-09 07:53:00
4:53 AM,55.9,51.1,84,29.94,5.0,Calm,Calm,-,N/A,,Haze,0,2013-05-09 08:53:00
5:53 AM,54.0,50.0,86,29.94,5.0,Calm,Calm,-,N/A,,Mostly Cloudy,0,2013-05-09 09:53:00
6:53 AM,55.0,52.0,89,29.96,4.0,Calm,Calm,-,N/A,,Mostly Cloudy,0,2013-05-09 10:53:00
7:53 AM,61.0,55.0,81,29.96,5.0,Calm,Calm,-,N/A,,Haze,0,2013-05-09 11:53:00
8:53 AM,64.9,55.0,70,29.97,10.0,Calm,Calm,-,N/A,,Scattered Clouds,0,2013-05-09 12:53:00
9:53 AM,71.1,53.1,53,29.98,10.0,Calm,Calm,-,N/A,,Partly Cloudy,0,2013-05-09 13:53:00
10:53 AM,73.9,52.0,46,29.97,10.0,Calm,Calm,-,N/A,,Partly Cloudy,0,2013-05-09 14:53:00
11:53 AM,77.0,50.0,39,29.98,10.0,SW,4.6,-,N/A,,Scattered Clouds,230,2013-05-09 15:53:00
12:53 PM,78.8,48.2,34,29.98,10.0,SSE,6.9,-,N/A,,Scattered Clouds,150,2013-05-09 16:53:00
1:53 PM,80.1,48.9,34,29.96,10.0,South,6.9,-,N/A,,Mostly Cloudy,170,2013-05-09 17:53:00
2:53 PM,79.0,50.0,36,29.95,10.0,South,13.8,-,N/A,,Overcast,170,2013-05-09 18:53:00
3:53 PM,78.8,51.8,39,29.94,10.0,SSE,11.5,-,N/A,,Overcast,160,2013-05-09 19:53:00
4:53 PM,78.1,48.0,35,29.93,10.0,SSE,9.2,-,N/A,,Overcast,160,2013-05-09 20:53:00
5:53 PM,77.0,48.9,37,29.92,10.0,SE,10.4,-,N/A,,Overcast,140,2013-05-09 21:53:00
6:53 PM,75.0,45.0,34,29.92,10.0,SE,6.9,-,N/A,,Overcast,140,2013-05-09 22:53:00
7:53 PM,73.0,39.9,30,29.91,10.0,SE,6.9,-,N/A,,Overcast,140,2013-05-09 23:53:00
8:53 PM,70.0,45.0,41,29.92,10.0,SE,5.8,-,N/A,,Overcast,130,2013-05-10 00:53:00
9:53 PM,68.0,42.8,40,29.93,10.0,SE,4.6,-,N/A,,Overcast,140,2013-05-10 01:53:00
10:53 PM,68.0,44.1,42,29.92,10.0,SSE,6.9,-,N/A,,Overcast,150,2013-05-10 02:53:00
11:53 PM,68.0,46.9,47,29.91,10.0,SSE,6.9,-,N/A,,Overcast,150,2013-05-10 03:53:00